Time;durP1;ratioP1;P1;durP2;ratioP2;P2;SDS_P1;SDS_P2;PMS_P1;PMS_P2;Temp;Humidity;BMP_temperature;BMP_pressure;BME280_temperature;BME280_humidity;BME280_pressure;Samples;Min_cycle;Max_cycle;Signal;HPM_P1;HPM_P2
2023/08/24 00:01:12;;;;;;;11.23;1.60;;;;;;;18.51;100.00;101304.47;5103473;28;20108;-71
2023/08/24 00:03:39;;;;;;;8.55;1.60;;;;;;;18.61;100.00;101298.38;5106561;28;20032;-71
2023/08/24 00:06:05;;;;;;;6.40;1.50;;;;;;;18.47;100.00;101306.00;5107439;28;20040;-70
2023/08/24 00:08:31;;;;;;;6.38;1.38;;;;;;;18.49;100.00;101291.06;5103386;28;20437;-71
2023/08/24 00:10:57;;;;;;;8.13;1.58;;;;;;;18.51;100.00;101293.56;5099665;28;20581;-70
2023/08/24 00:13:22;;;;;;;4.45;1.15;;;;;;;18.48;100.00;101296.78;5098962;28;20016;-71
2023/08/24 00:15:48;;;;;;;5.97;1.38;;;;;;;18.51;100.00;101297.13;5100271;28;20498;-70
2023/08/24 00:18:13;;;;;;;7.75;2.00;;;;;;;18.45;100.00;101289.91;5099910;28;20034;-70
2023/08/24 00:20:39;;;;;;;13.23;1.40;;;;;;;18.50;100.00;101276.38;5065246;28;20542;-71
2023/08/24 00:23:04;;;;;;;9.88;2.03;;;;;;;18.48;100.00;101289.41;5098341;28;20044;-70
2023/08/24 00:25:31;;;;;;;6.72;1.67;;;;;;;18.47;100.00;101289.63;5099767;28;20527;-70
2023/08/24 00:27:56;;;;;;;7.13;1.58;;;;;;;18.44;100.00;101281.94;5100056;28;20052;-70
2023/08/24 00:30:23;;;;;;;8.55;1.48;;;;;;;18.44;100.00;101281.94;5100683;28;20035;-71
2023/08/24 00:32:49;;;;;;;8.30;1.58;;;;;;;18.50;100.00;101281.81;5098440;28;20096;-71
2023/08/24 00:35:15;;;;;;;7.00;1.65;;;;;;;18.43;100.00;101281.13;5098650;28;20020;-71
2023/08/24 00:37:41;;;;;;;7.90;1.55;;;;;;;18.35;100.00;101272.50;5098419;28;20027;-70
2023/08/24 00:40:08;;;;;;;8.13;1.83;;;;;;;18.35;100.00;101275.22;5100297;28;20036;-70
2023/08/24 00:42:40;;;;;;;8.45;1.80;;;;;;;18.30;100.00;101271.31;5095473;28;20479;-70
2023/08/24 00:45:11;;;;;;;14.77;1.90;;;;;;;18.22;100.00;101259.97;5078905;28;20111;-71
2023/08/24 00:47:39;;;;;;;13.95;2.35;;;;;;;18.21;100.00;101272.75;5101215;28;20023;-71
2023/08/24 00:50:06;;;;;;;10.23;2.10;;;;;;;18.10;100.00;101257.25;5099748;28;20047;-70
2023/08/24 00:52:32;;;;;;;11.23;2.10;;;;;;;18.21;100.00;101283.66;5102292;28;20055;-70
2023/08/24 00:54:59;;;;;;;11.50;2.30;;;;;;;18.11;100.00;101271.69;5083347;28;20032;-71
2023/08/24 00:57:27;;;;;;;13.05;2.47;;;;;;;17.97;100.00;101252.03;5099533;28;20088;-70
2023/08/24 00:59:52;;;;;;;14.38;2.10;;;;;;;18.19;100.00;101283.06;5100063;28;20020;-70
2023/08/24 01:02:18;;;;;;;15.90;2.33;;;;;;;18.18;100.00;101281.41;5097919;28;20035;-71
2023/08/24 01:04:46;;;;;;;13.27;2.10;;;;;;;18.21;100.00;101280.94;5097883;28;20032;-70
2023/08/24 01:07:12;;;;;;;15.02;2.05;;;;;;;18.20;100.00;101276.53;5096929;28;20039;-70
2023/08/24 01:09:37;;;;;;;17.55;2.45;;;;;;;18.27;100.00;101282.69;5081693;28;20119;-70
2023/08/24 01:12:34;;;;;;;16.25;2.78;;;;;;;18.35;99.82;101272.50;5105761;28;20039;-70
2023/08/24 01:15:21;;;;;;;13.75;2.35;;;;;;;18.29;100.00;101279.72;5111149;28;20035;-70
2023/08/24 01:17:49;;;;;;;21.45;2.70;;;;;;;18.17;100.00;101278.91;5104270;28;20024;-70
2023/08/24 01:20:17;;;;;;;13.27;2.83;;;;;;;18.16;100.00;101269.91;5096456;28;20020;-71
2023/08/24 01:22:57;;;;;;;10.80;2.13;;;;;;;18.26;99.58;101277.47;5098442;28;20027;-70
2023/08/24 01:25:36;;;;;;;18.77;2.58;;;;;;;18.22;100.00;101277.13;5098626;28;20467;-71
2023/08/24 01:28:05;;;;;;;17.10;2.50;;;;;;;18.24;99.90;101272.25;5098830;28;20110;-71
2023/08/24 01:30:31;;;;;;;14.25;2.65;;;;;;;18.24;99.65;101280.44;5097885;28;20052;-70
2023/08/24 01:32:56;;;;;;;17.02;2.67;;;;;;;18.23;99.49;101270.59;5098183;28;20044;-70
2023/08/24 01:35:22;;;;;;;15.45;2.38;;;;;;;18.20;99.73;101273.81;5099058;28;20535;-71
2023/08/24 01:37:48;;;;;;;13.48;2.30;;;;;;;18.17;99.85;101271.56;5099685;28;20474;-71
2023/08/24 01:40:36;;;;;;;18.60;2.40;;;;;;;18.09;100.00;101261.03;5097373;28;20047;-71
2023/08/24 01:43:05;;;;;;;17.15;2.95;;;;;;;18.28;99.57;101275.34;5099636;28;20035;-71
2023/08/24 01:45:32;;;;;;;16.02;2.70;;;;;;;18.22;100.00;101270.84;5100046;28;20028;-71
2023/08/24 01:48:03;;;;;;;16.92;2.67;;;;;;;18.24;100.00;101272.25;5100267;28;20028;-71
2023/08/24 01:50:30;;;;;;;12.77;2.40;;;;;;;18.15;100.00;101265.53;5100017;28;20024;-71
2023/08/24 01:52:56;;;;;;;16.15;2.10;;;;;;;18.02;100.00;101242.09;5098355;28;20027;-71
2023/08/24 01:55:21;;;;;;;25.17;2.40;;;;;;;17.92;99.65;101220.09;5099829;28;20024;-70
2023/08/24 01:57:48;;;;;;;15.50;2.63;;;;;;;18.18;99.56;101265.06;5098687;28;20043;-71
2023/08/24 02:00:14;;;;;;;19.42;2.78;;;;;;;18.17;99.57;101259.84;5096971;28;20028;-70
2023/08/24 02:02:39;;;;;;;15.93;2.30;;;;;;;18.17;99.29;101260.66;5096152;28;20242;-70
2023/08/24 02:05:05;;;;;;;15.88;2.95;;;;;;;18.16;99.47;101269.91;5096867;28;20091;-71
2023/08/24 02:07:31;;;;;;;13.13;2.55;;;;;;;18.19;99.14;101257.72;5098797;28;20047;-70
2023/08/24 02:09:58;;;;;;;18.30;2.90;;;;;;;18.12;99.42;101257.84;5099577;28;20039;-70
2023/08/24 02:12:23;;;;;;;21.33;3.10;;;;;;;18.09;99.48;101261.03;5095040;28;20028;-70
2023/08/24 02:14:48;;;;;;;13.50;3.20;;;;;;;18.05;99.39;101254.41;5096839;28;20036;-71
2023/08/24 02:17:14;;;;;;;18.35;2.58;;;;;;;17.98;99.81;101256.41;5081072;28;20394;-71
2023/08/24 02:19:41;;;;;;;16.05;2.28;;;;;;;17.96;99.77;101261.28;5099071;28;20372;-70
2023/08/24 02:22:07;;;;;;;21.13;3.42;;;;;;;17.94;99.72;101258.78;5098538;28;20614;-70
2023/08/24 02:24:32;;;;;;;12.27;2.25;;;;;;;17.95;99.32;101257.72;5080710;28;20152;-71
2023/08/24 02:26:58;;;;;;;14.60;2.35;;;;;;;17.94;99.27;101257.94;5098431;28;20535;-70
2023/08/24 02:29:23;;;;;;;11.82;2.15;;;;;;;17.80;99.99;101265.53;5097356;28;20027;-71
2023/08/24 02:31:52;;;;;;;16.65;2.50;;;;;;;17.87;99.50;101266.25;5097174;28;20035;-70
2023/08/24 02:34:18;;;;;;;16.42;2.15;;;;;;;17.88;99.28;101265.19;5097810;28;20395;-70
2023/08/24 02:36:43;;;;;;;15.77;3.00;;;;;;;17.88;99.21;101261.63;5097450;28;20024;-71
2023/08/24 02:39:09;;;;;;;16.10;2.63;;;;;;;17.75;99.53;101252.59;5081033;28;20505;-71
2023/08/24 02:41:36;;;;;;;13.38;2.20;;;;;;;17.84;99.25;101267.53;5098431;28;20024;-71
2023/08/24 02:44:02;;;;;;;15.55;2.80;;;;;;;17.67;99.54;101243.94;5100115;28;20034;-70
2023/08/24 02:46:27;;;;;;;14.40;2.70;;;;;;;17.74;98.92;101247.38;5098111;28;20032;-70
2023/08/24 02:48:53;;;;;;;11.95;2.80;;;;;;;17.79;98.86;101259.25;5081023;28;20027;-71
2023/08/24 02:51:22;;;;;;;15.95;2.28;;;;;;;17.77;99.40;101250.50;5099704;28;20135;-71
2023/08/24 02:53:48;;;;;;;18.42;2.80;;;;;;;17.79;99.22;101256.53;5100045;28;20035;-71
2023/08/24 02:56:13;;;;;;;14.63;2.63;;;;;;;17.76;99.32;101262.44;5095526;28;20391;-70
2023/08/24 02:58:39;;;;;;;15.40;2.90;;;;;;;17.76;99.46;101257.00;5097646;28;20032;-71
2023/08/24 03:01:07;;;;;;;23.30;3.65;;;;;;;17.72;99.81;101250.34;5099455;28;20028;-70
2023/08/24 03:03:36;;;;;;;22.70;2.95;;;;;;;17.65;100.00;101246.06;5099401;28;20368;-71
2023/08/24 03:06:07;;;;;;;14.15;2.47;;;;;;;17.65;100.00;101257.81;5098311;28;20028;-70
2023/08/24 03:08:33;;;;;;;19.75;2.60;;;;;;;17.47;100.00;101209.75;5097149;28;20437;-70
2023/08/24 03:11:00;;;;;;;15.40;2.60;;;;;;;17.70;100.00;101246.22;5098295;28;20028;-70
2023/08/24 03:13:26;;;;;;;19.45;3.17;;;;;;;17.67;100.00;101244.78;5096501;28;20028;-70
2023/08/24 03:15:54;;;;;;;18.15;2.92;;;;;;;17.71;100.00;101245.97;5097925;28;20028;-70
2023/08/24 03:18:20;;;;;;;18.42;2.80;;;;;;;17.72;100.00;101253.06;5101962;28;20032;-70
2023/08/24 03:20:47;;;;;;;16.75;2.83;;;;;;;17.76;100.00;101248.84;5103617;28;20031;-70
2023/08/24 03:23:12;;;;;;;16.08;2.78;;;;;;;17.73;100.00;101243.00;5085372;28;20031;-71
2023/08/24 03:25:41;;;;;;;16.30;2.63;;;;;;;17.78;100.00;101244.00;5086140;28;20035;-70
2023/08/24 03:28:08;;;;;;;18.98;2.83;;;;;;;17.81;100.00;101243.53;5106256;28;20103;-70
2023/08/24 03:30:35;;;;;;;24.30;3.25;;;;;;;17.81;100.00;101250.84;5104216;28;20499;-70
2023/08/24 03:33:02;;;;;;;16.25;2.75;;;;;;;17.65;100.00;101230.59;5104255;28;20020;-71
2023/08/24 03:35:29;;;;;;;16.80;2.97;;;;;;;17.63;100.00;101231.88;5105043;28;20032;-70
2023/08/24 03:37:55;;;;;;;18.17;2.75;;;;;;;17.68;100.00;101251.91;5107372;28;20056;-71
2023/08/24 03:40:20;;;;;;;20.42;3.00;;;;;;;17.69;100.00;101250.00;5088695;28;20028;-71
2023/08/24 03:42:46;;;;;;;18.00;2.85;;;;;;;17.72;100.00;101257.69;5106644;28;20028;-70
2023/08/24 03:45:11;;;;;;;20.38;3.42;;;;;;;17.76;100.00;101264.31;5107209;28;20016;-71
2023/08/24 03:47:36;;;;;;;18.80;2.83;;;;;;;17.68;100.00;101238.28;5105945;28;20046;-71
2023/08/24 03:50:02;;;;;;;21.45;2.85;;;;;;;17.71;100.00;101261.47;5107566;28;20122;-70
2023/08/24 03:52:27;;;;;;;20.52;3.40;;;;;;;17.72;100.00;101261.25;5107350;28;20059;-70
2023/08/24 03:54:53;;;;;;;23.50;3.15;;;;;;;17.72;100.00;101260.41;5089469;28;20094;-71
2023/08/24 03:57:18;;;;;;;16.48;2.97;;;;;;;17.73;100.00;101254.72;5108152;28;20135;-71
2023/08/24 03:59:44;;;;;;;20.80;3.00;;;;;;;17.71;100.00;101258.75;5106692;28;20038;-70
2023/08/24 04:02:09;;;;;;;19.85;2.90;;;;;;;17.66;100.00;101247.75;5107035;28;20032;-70
2023/08/24 04:04:36;;;;;;;21.77;3.42;;;;;;;17.70;100.00;101246.22;5106150;28;20028;-71
2023/08/24 04:07:02;;;;;;;14.57;3.20;;;;;;;17.66;100.00;101245.84;5105069;28;20036;-71
2023/08/24 04:09:28;;;;;;;18.98;2.70;;;;;;;17.72;100.00;101247.63;5090679;28;20032;-71
2023/08/24 04:11:54;;;;;;;21.20;3.17;;;;;;;17.76;100.00;101262.44;5068551;28;20024;-72
2023/08/24 04:14:20;;;;;;;21.58;3.72;;;;;;;17.77;100.00;101266.00;5101370;28;20034;-70
2023/08/24 04:16:45;;;;;;;24.92;3.25;;;;;;;17.78;100.00;101251.31;5106356;28;20047;-71
2023/08/24 04:19:10;;;;;;;17.48;2.75;;;;;;;17.76;100.00;101259.72;5101606;28;20032;-71
2023/08/24 04:21:36;;;;;;;14.82;2.97;;;;;;;17.63;100.00;101240.88;5101019;28;20499;-72
2023/08/24 04:24:02;;;;;;;14.38;2.90;;;;;;;17.75;100.00;101257.22;5083395;28;20032;-71
2023/08/24 04:26:27;;;;;;;19.35;3.10;;;;;;;17.94;100.00;101261.50;5098870;28;20044;-71
2023/08/24 04:28:53;;;;;;;15.45;2.67;;;;;;;17.98;100.00;101256.41;5102650;28;20066;-71
2023/08/24 04:31:18;;;;;;;22.20;3.05;;;;;;;17.91;100.00;101261.16;5103110;28;20032;-70
2023/08/24 04:33:44;;;;;;;19.48;3.08;;;;;;;17.98;100.00;101261.84;5104206;28;20445;-70
2023/08/24 04:36:09;;;;;;;17.00;2.70;;;;;;;18.01;100.00;101250.50;5103542;28;20026;-70
2023/08/24 04:38:35;;;;;;;19.23;2.88;;;;;;;17.93;100.00;101231.81;5105367;28;20046;-70
2023/08/24 04:41:00;;;;;;;17.60;2.65;;;;;;;18.15;100.00;101262.81;5104992;28;20091;-70
2023/08/24 04:43:26;;;;;;;18.33;2.97;;;;;;;18.17;100.00;101254.38;5105877;28;20036;-70
2023/08/24 04:45:53;;;;;;;17.33;3.10;;;;;;;18.28;99.81;101262.56;5086910;28;20055;-70
2023/08/24 04:48:23;;;;;;;19.25;2.97;;;;;;;18.13;100.00;101236.88;5100558;28;20091;-70
2023/08/24 04:50:49;;;;;;;16.63;3.05;;;;;;;18.34;99.48;101252.59;5104617;28;20066;-70
2023/08/24 04:53:17;;;;;;;17.23;3.17;;;;;;;18.37;99.01;101259.44;5105088;28;20024;-70
2023/08/24 04:55:43;;;;;;;19.17;2.80;;;;;;;18.49;98.82;101273.88;5103853;28;20016;-70
2023/08/24 04:58:09;;;;;;;20.42;2.42;;;;;;;18.39;99.54;101262.78;5103561;28;20023;-70
2023/08/24 05:00:36;;;;;;;14.23;2.70;;;;;;;18.41;98.69;101256.03;5102173;28;20032;-70
2023/08/24 05:03:02;;;;;;;17.98;2.42;;;;;;;18.51;98.46;101260.88;5101953;28;20023;-70
2023/08/24 05:05:32;;;;;;;16.40;3.10;;;;;;;18.52;98.41;101265.25;5082145;28;20020;-69
2023/08/24 05:07:59;;;;;;;20.20;2.83;;;;;;;18.53;98.48;101259.53;5099181;28;20039;-70
2023/08/24 05:10:25;;;;;;;17.60;2.80;;;;;;;18.60;97.46;101256.66;5101016;28;20039;-71
2023/08/24 05:12:51;;;;;;;15.95;2.47;;;;;;;18.63;97.57;101250.75;5104256;28;20016;-69
2023/08/24 05:15:17;;;;;;;19.65;2.72;;;;;;;18.67;97.50;101260.09;5104045;28;20043;-70
2023/08/24 05:17:42;;;;;;;15.48;2.55;;;;;;;18.70;97.13;101253.31;5101906;28;20031;-70
2023/08/24 05:20:10;;;;;;;19.73;3.03;;;;;;;18.64;97.68;101255.13;5079155;28;20043;-70
2023/08/24 05:22:36;;;;;;;13.95;2.42;;;;;;;18.61;97.43;101258.34;5097095;28;20459;-70
2023/08/24 05:25:01;;;;;;;18.48;2.95;;;;;;;18.55;97.41;101259.31;5097537;28;20042;-70
2023/08/24 05:27:27;;;;;;;18.08;2.63;;;;;;;18.63;97.11;101255.38;5097314;28;20047;-69
2023/08/24 05:29:52;;;;;;;18.50;2.85;;;;;;;18.60;97.19;101253.94;5095925;28;20035;-70
2023/08/24 05:32:18;;;;;;;13.95;2.83;;;;;;;18.63;96.59;101237.13;5095850;28;20410;-70
2023/08/24 05:34:45;;;;;;;17.20;2.40;;;;;;;18.61;96.90;101246.59;5080019;28;20028;-70
2023/08/24 05:37:11;;;;;;;21.08;2.78;;;;;;;18.67;96.87;101249.19;5096947;28;20020;-70
2023/08/24 05:39:36;;;;;;;15.10;2.90;;;;;;;18.64;96.97;101241.50;5097299;28;20038;-69
2023/08/24 05:42:01;;;;;;;18.20;2.90;;;;;;;18.69;96.56;101233.41;5077406;28;20044;-70
2023/08/24 05:44:27;;;;;;;28.27;3.72;;;;;;;18.78;96.45;101244.81;5098662;28;20120;-70
2023/08/24 05:46:52;;;;;;;19.95;3.00;;;;;;;18.84;95.94;101243.00;5097794;28;20028;-70
2023/08/24 05:49:17;;;;;;;16.08;2.85;;;;;;;18.95;95.52;101255.75;5079712;28;20028;-70
2023/08/24 05:51:43;;;;;;;15.10;2.60;;;;;;;18.99;95.10;101249.56;5098603;28;20050;-70
2023/08/24 05:54:09;;;;;;;14.48;2.65;;;;;;;19.02;94.49;101242.81;5097030;28;20074;-70
2023/08/24 05:56:34;;;;;;;14.38;2.47;;;;;;;19.13;94.23;101243.81;5097064;28;20069;-70
2023/08/24 05:59:00;;;;;;;20.00;2.83;;;;;;;19.12;94.13;101236.72;5092238;28;20032;-70
2023/08/24 06:01:25;;;;;;;20.63;2.58;;;;;;;19.24;93.65;101238.31;5094394;28;20460;-70
2023/08/24 06:03:51;;;;;;;13.15;2.38;;;;;;;19.32;93.20;101233.50;5096164;28;20116;-70
2023/08/24 06:06:16;;;;;;;14.82;2.80;;;;;;;19.33;93.00;101229.69;5079197;28;20028;-69
2023/08/24 06:08:42;;;;;;;12.75;2.80;;;;;;;19.48;91.92;101230.78;5096648;28;20479;-70
2023/08/24 06:11:07;;;;;;;14.63;2.42;;;;;;;19.59;91.04;101212.66;5098301;28;20060;-70
2023/08/24 06:13:33;;;;;;;22.20;3.40;;;;;;;19.76;90.58;101233.69;5098150;28;20554;-70
2023/08/24 06:15:58;;;;;;;15.32;2.58;;;;;;;19.77;89.81;101230.72;5096455;28;20032;-70
2023/08/24 06:18:24;;;;;;;13.88;2.50;;;;;;;19.79;89.53;101235.94;5096553;28;20085;-70
2023/08/24 06:20:50;;;;;;;21.88;3.42;;;;;;;19.84;89.29;101236.03;5095390;28;20031;-70
2023/08/24 06:23:19;;;;;;;14.52;2.20;;;;;;;19.78;89.17;101223.34;5096899;28;20032;-70
2023/08/24 06:25:45;;;;;;;13.57;2.78;;;;;;;20.03;87.61;101234.63;5097096;28;20035;-70
2023/08/24 06:28:12;;;;;;;11.90;2.13;;;;;;;20.17;87.49;101235.94;5095912;28;20024;-70
2023/08/24 06:30:42;;;;;;;15.85;2.75;;;;;;;20.25;86.83;101231.13;5098060;28;20047;-71
2023/08/24 06:33:09;;;;;;;17.17;2.50;;;;;;;20.13;86.19;101184.78;5108549;28;20054;-70
2023/08/24 06:35:36;;;;;;;17.08;2.92;;;;;;;20.60;85.19;101239.81;5095407;28;20127;-70
2023/08/24 06:38:03;;;;;;;16.02;2.47;;;;;;;20.47;84.82;101236.59;5093108;28;20036;-70
2023/08/24 06:40:29;;;;;;;11.95;2.45;;;;;;;20.34;84.15;101224.97;5079875;28;20051;-70
2023/08/24 06:42:54;;;;;;;14.18;2.58;;;;;;;20.37;83.37;101240.03;5095450;28;20032;-70
2023/08/24 06:45:20;;;;;;;14.38;2.50;;;;;;;20.45;83.31;101241.47;5096319;28;20419;-70
2023/08/24 06:47:45;;;;;;;12.02;2.38;;;;;;;20.56;82.68;101252.34;5079218;28;20036;-70
2023/08/24 06:50:11;;;;;;;13.57;2.33;;;;;;;20.52;82.11;101248.44;5078780;28;20042;-70
2023/08/24 06:52:36;;;;;;;11.82;2.10;;;;;;;20.60;81.73;101241.72;5095496;28;20044;-70
2023/08/24 06:55:03;;;;;;;16.48;2.30;;;;;;;20.92;80.89;101247.25;5078661;28;20062;-70
2023/08/24 06:57:28;;;;;;;13.30;2.60;;;;;;;21.09;80.08;101237.06;5095687;28;20028;-70
2023/08/24 06:59:54;;;;;;;13.27;2.85;;;;;;;21.14;79.56;101240.91;5079484;28;20085;-70
2023/08/24 07:02:19;;;;;;;15.60;2.40;;;;;;;21.16;79.29;101238.72;5082394;28;20035;-70
2023/08/24 07:04:45;;;;;;;12.27;2.30;;;;;;;21.10;77.86;101244.16;5100206;28;20036;-70
2023/08/24 07:07:10;;;;;;;12.77;2.17;;;;;;;21.43;77.31;101250.53;5097691;28;20031;-71
2023/08/24 07:09:36;;;;;;;13.85;3.55;;;;;;;21.33;76.99;101253.16;5097869;28;20112;-70
2023/08/24 07:12:03;;;;;;;13.27;2.53;;;;;;;21.67;76.54;101248.25;5097774;28;20060;-70
2023/08/24 07:14:28;;;;;;;18.48;2.60;;;;;;;21.91;75.71;101248.69;5082488;28;20343;-70
2023/08/24 07:16:54;;;;;;;12.68;2.60;;;;;;;22.01;75.33;101265.19;5100532;28;20032;-70
2023/08/24 07:19:20;;;;;;;9.57;2.10;;;;;;;22.09;74.71;101257.56;5101673;28;20063;-70
2023/08/24 07:21:46;;;;;;;9.73;1.80;;;;;;;22.03;73.78;101268.50;5099034;28;20040;-70
2023/08/24 07:24:11;;;;;;;14.07;2.53;;;;;;;21.93;73.67;101279.38;5100728;28;20032;-70
2023/08/24 07:26:37;;;;;;;17.55;2.35;;;;;;;21.91;73.22;101278.81;5099632;28;20039;-70
2023/08/24 07:29:02;;;;;;;12.23;2.67;;;;;;;21.83;72.91;101262.88;5081918;28;20120;-70
2023/08/24 07:31:27;;;;;;;12.35;2.08;;;;;;;22.17;72.49;101268.06;5100314;28;20024;-71
2023/08/24 07:33:53;;;;;;;14.45;2.55;;;;;;;22.34;71.82;101256.91;5102059;28;20035;-70
2023/08/24 07:36:19;;;;;;;11.60;2.25;;;;;;;22.31;71.32;101262.91;5083499;28;20066;-70
2023/08/24 07:38:47;;;;;;;12.90;2.35;;;;;;;21.92;71.13;101260.47;5102616;28;20103;-70
2023/08/24 07:41:12;;;;;;;11.93;2.20;;;;;;;21.71;70.92;101259.50;5101638;28;20066;-70
2023/08/24 07:43:37;;;;;;;11.10;2.00;;;;;;;21.71;71.11;101275.94;5101430;28;20036;-70
2023/08/24 07:46:03;;;;;;;14.48;2.55;;;;;;;21.62;70.08;101270.09;5099772;28;20031;-70
2023/08/24 07:48:29;;;;;;;12.07;2.10;;;;;;;21.55;70.97;101286.75;5101958;28;20069;-70
2023/08/24 07:50:55;;;;;;;13.55;2.47;;;;;;;21.57;71.21;101272.81;5100519;28;20063;-70
2023/08/24 07:53:20;;;;;;;8.65;1.90;;;;;;;21.58;70.86;101278.00;5100537;28;20588;-70
2023/08/24 07:55:46;;;;;;;15.63;2.45;;;;;;;21.70;71.18;101279.78;5100617;28;20039;-69
2023/08/24 07:58:12;;;;;;;9.65;1.95;;;;;;;22.07;70.74;101273.44;5099666;28;20104;-70
2023/08/24 08:00:37;;;;;;;10.70;2.15;;;;;;;22.31;69.99;101279.38;5100336;28;20036;-70
2023/08/24 08:03:03;;;;;;;11.02;2.25;;;;;;;22.04;69.60;101291.25;5099511;28;20482;-70
2023/08/24 08:05:29;;;;;;;9.45;1.92;;;;;;;22.09;68.39;101282.25;5082687;28;20407;-70
2023/08/24 08:07:54;;;;;;;11.50;2.45;;;;;;;21.92;68.08;101282.38;5100869;28;20039;-70
2023/08/24 08:10:21;;;;;;;13.15;1.85;;;;;;;21.69;69.17;101291.78;5099306;28;20028;-70
2023/08/24 08:12:47;;;;;;;11.35;2.00;;;;;;;21.75;70.04;101293.50;5100824;28;20032;-69
2023/08/24 08:15:12;;;;;;;8.75;1.58;;;;;;;21.69;70.28;101295.38;5102315;28;20033;-70
2023/08/24 08:17:38;;;;;;;12.38;1.95;;;;;;;21.65;70.96;101296.97;5099425;28;20475;-70
2023/08/24 08:20:04;;;;;;;13.27;2.25;;;;;;;21.78;71.24;101302.00;5098666;28;20035;-70
2023/08/24 08:22:30;;;;;;;12.65;1.98;;;;;;;22.00;71.02;101293.69;5067627;28;20032;-70
2023/08/24 08:24:58;;;;;;;10.60;1.92;;;;;;;22.42;69.64;101303.84;5098534;28;20049;-70
2023/08/24 08:27:23;;;;;;;11.98;1.90;;;;;;;22.30;68.49;101303.22;5103013;28;20043;-70
2023/08/24 08:29:50;;;;;;;9.63;1.80;;;;;;;21.86;67.43;101303.44;5087162;28;20036;-70
2023/08/24 08:32:15;;;;;;;10.52;2.05;;;;;;;21.80;68.50;101312.72;5105288;28;20020;-70
2023/08/24 08:34:40;;;;;;;12.13;2.30;;;;;;;21.88;68.69;101308.66;5103995;28;20028;-71
2023/08/24 08:37:06;;;;;;;10.32;1.95;;;;;;;21.82;69.17;101310.56;5104219;28;20362;-70
2023/08/24 08:39:34;;;;;;;13.20;2.17;;;;;;;21.76;69.24;101295.97;5101242;28;20035;-71
2023/08/24 08:42:01;;;;;;;14.50;2.10;;;;;;;21.95;69.20;101306.50;5085171;28;20032;-70
2023/08/24 08:44:34;;;;;;;10.57;2.20;;;;;;;21.71;68.72;101303.31;5102178;28;20233;-71
2023/08/24 08:47:00;;;;;;;11.05;2.00;;;;;;;21.55;69.62;101318.78;5099489;28;20027;-72
2023/08/24 08:49:26;;;;;;;9.35;2.00;;;;;;;21.48;70.17;101318.19;5102721;28;20082;-72
2023/08/24 08:51:52;;;;;;;9.07;2.00;;;;;;;21.60;70.07;101324.31;5102629;28;20060;-72
2023/08/24 08:54:17;;;;;;;10.02;1.80;;;;;;;21.44;69.67;101317.06;5101412;28;20032;-72
2023/08/24 08:56:43;;;;;;;10.88;2.00;;;;;;;21.46;69.68;101329.41;5069566;28;20565;-72
2023/08/24 08:59:11;;;;;;;12.50;2.30;;;;;;;21.51;70.25;101325.88;5102748;28;20024;-72
2023/08/24 09:01:38;;;;;;;8.93;1.83;;;;;;;21.65;69.71;101318.88;5101649;28;20027;-71
2023/08/24 09:04:06;;;;;;;9.45;2.10;;;;;;;21.64;70.24;101305.47;5101707;28;20020;-71
2023/08/24 09:06:31;;;;;;;11.65;2.20;;;;;;;21.69;69.79;101283.56;5101930;28;20016;-72
2023/08/24 09:08:57;;;;;;;13.05;2.22;;;;;;;22.16;68.97;101318.50;5100624;28;20030;-71
2023/08/24 09:11:23;;;;;;;13.30;2.25;;;;;;;22.23;68.66;101319.91;5098305;28;20047;-72
2023/08/24 09:13:49;;;;;;;9.82;2.00;;;;;;;22.29;68.58;101309.81;5102679;28;20024;-71
2023/08/24 09:16:16;;;;;;;11.80;2.35;;;;;;;22.42;68.15;101314.81;5102958;28;20024;-71
2023/08/24 09:18:44;;;;;;;10.07;1.90;;;;;;;22.61;67.24;101308.84;5100691;28;20040;-72
2023/08/24 09:21:15;;;;;;;9.05;2.00;;;;;;;22.56;66.30;101308.84;5101321;28;20027;-71
2023/08/24 09:24:00;;;;;;;7.60;1.65;;;;;;;22.24;67.66;101313.31;5101498;28;20049;-71
2023/08/24 09:26:33;;;;;;;11.48;2.10;;;;;;;22.22;67.54;101288.09;5101276;28;20036;-72
2023/08/24 09:29:00;;;;;;;11.43;2.03;;;;;;;22.50;67.85;101297.84;5100966;28;20016;-71
2023/08/24 09:31:38;;;;;;;9.77;1.58;;;;;;;22.54;66.95;101322.00;5102746;28;20034;-72
2023/08/24 09:34:04;;;;;;;9.00;1.52;;;;;;;22.20;66.28;101317.69;5080831;28;20055;-71
2023/08/24 09:36:34;;;;;;;12.40;2.05;;;;;;;22.32;66.79;101324.88;5125685;27;20105;-71
2023/08/24 09:39:00;;;;;;;11.10;1.80;;;;;;;22.59;66.46;101324.78;5103273;28;20102;-72
2023/08/24 09:41:44;;;;;;;11.73;1.83;;;;;;;22.51;66.52;101320.59;5095692;28;20028;-71
2023/08/24 09:44:10;;;;;;;10.40;1.90;;;;;;;22.20;66.75;101317.69;5102885;28;20536;-71
2023/08/24 09:46:38;;;;;;;7.93;1.70;;;;;;;22.14;67.34;101315.97;5100549;28;20521;-72
2023/08/24 09:49:09;;;;;;;8.27;2.05;;;;;;;22.19;68.17;101316.06;5100353;28;20028;-71
2023/08/24 09:51:36;;;;;;;10.35;1.88;;;;;;;22.11;68.26;101313.75;5101219;28;20530;-71
2023/08/24 09:54:08;;;;;;;8.98;1.98;;;;;;;22.14;68.00;101323.38;5083091;28;20027;-72
2023/08/24 09:56:36;;;;;;;11.55;1.60;;;;;;;22.19;67.85;101328.94;5101720;28;20076;-71
2023/08/24 09:59:10;;;;;;;10.02;2.00;;;;;;;22.15;67.89;101320.41;5100194;28;20024;-71
2023/08/24 10:01:36;;;;;;;8.55;1.50;;;;;;;22.16;67.17;101326.72;5098350;28;20042;-71
2023/08/24 10:04:05;;;;;;;9.40;1.73;;;;;;;22.12;67.41;101331.88;5101388;28;20036;-72
2023/08/24 10:06:32;;;;;;;6.90;1.48;;;;;;;22.17;66.75;101322.88;5100800;28;20027;-71
2023/08/24 10:09:04;;;;;;;8.50;1.75;;;;;;;22.15;66.46;101327.75;5100037;28;20032;-71
2023/08/24 10:11:32;;;;;;;7.28;1.80;;;;;;;21.96;66.27;101311.75;5102017;28;20028;-71
2023/08/24 10:14:07;;;;;;;9.68;1.60;;;;;;;21.81;65.97;101287.78;5099872;28;20051;-71
2023/08/24 10:16:35;;;;;;;6.18;1.58;;;;;;;21.64;65.51;101291.75;5106982;28;20054;-71
2023/08/24 10:19:02;;;;;;;6.60;1.40;;;;;;;21.35;66.09;101292.88;5101881;28;20032;-72
2023/08/24 10:21:28;;;;;;;6.25;1.50;;;;;;;21.33;65.62;101296.94;5100933;28;20645;-70
2023/08/24 10:23:56;;;;;;;9.68;1.80;;;;;;;21.28;66.71;101300.44;5103102;28;20059;-70
2023/08/24 10:26:23;;;;;;;6.07;1.33;;;;;;;21.47;67.07;101300.94;5099717;28;20044;-71
2023/08/24 10:28:50;;;;;;;7.22;1.70;;;;;;;21.83;65.80;101306.72;5100751;28;20502;-71
2023/08/24 10:31:16;;;;;;;6.68;1.70;;;;;;;21.96;65.69;101306.28;5100578;28;20406;-71
2023/08/24 10:33:45;;;;;;;6.35;1.40;;;;;;;21.98;65.27;101298.59;5100197;28;20030;-71
2023/08/24 10:36:13;;;;;;;7.90;1.63;;;;;;;22.13;63.73;101306.09;5105071;28;20088;-71
2023/08/24 10:38:43;;;;;;;11.43;1.67;;;;;;;22.10;62.67;101308.56;5104654;28;20088;-71
2023/08/24 10:41:12;;;;;;;7.38;1.50;;;;;;;21.95;63.43;101299.16;5105774;28;20077;-71
2023/08/24 10:43:38;;;;;;;11.38;1.40;;;;;;;22.04;63.20;101305.75;5072099;28;20097;-70
2023/08/24 10:46:04;;;;;;;7.03;1.63;;;;;;;22.13;62.97;101294.31;5105973;28;20028;-71
2023/08/24 10:48:51;;;;;;;6.43;1.48;;;;;;;22.01;62.92;101297.25;5087731;28;20061;-70
2023/08/24 10:51:21;;;;;;;11.90;2.17;;;;;;;22.13;63.14;101310.75;5105783;28;20085;-70
2023/08/24 10:53:55;;;;;;;9.15;1.85;;;;;;;22.34;63.08;101303.50;5105843;28;20031;-71
2023/08/24 10:56:29;;;;;;;7.60;1.40;;;;;;;22.25;63.35;101305.91;5106279;28;20050;-71
2023/08/24 10:59:14;;;;;;;10.37;1.93;;;;;;;21.88;62.62;101295.78;5106856;28;20047;-71
2023/08/24 11:01:54;;;;;;;11.00;1.45;;;;;;;22.00;62.61;101303.81;5111569;28;20016;-72
2023/08/24 11:04:20;;;;;;;9.68;1.70;;;;;;;21.84;61.16;101302.06;5112407;28;20016;-72
2023/08/24 11:07:01;;;;;;;6.85;1.58;;;;;;;21.68;59.40;101293.72;5105560;28;20047;-71
2023/08/24 11:09:46;;;;;;;4.60;1.10;;;;;;;21.97;59.33;101305.16;5109561;28;20389;-71
2023/08/24 11:12:11;;;;;;;;;;;;;;;22.10;59.89;101305.81;5108740;28;20062;-72
2023/08/24 11:14:50;;;;;;;6.55;1.50;;;;;;;21.91;59.14;101292.50;5108176;28;19945;-71
2023/08/24 11:17:21;;;;;;;8.13;1.67;;;;;;;21.90;59.58;101318.28;5105716;28;20020;-71